createdAt,value
2022-10-23T00:01:35.986Z,20.55
2022-10-23T00:04:13.000Z,25.48
2022-10-23T00:06:39.931Z,24.33
2022-10-23T00:09:09.048Z,20.52
2022-10-23T00:11:36.533Z,23.25
2022-10-23T00:14:06.168Z,20.80
2022-10-23T00:16:33.633Z,22.73
2022-10-23T00:19:00.513Z,20.50
2022-10-23T00:21:27.796Z,21.85
2022-10-23T00:23:54.656Z,21.05
2022-10-23T00:26:21.562Z,30.63
2022-10-23T00:28:50.693Z,21.38
2022-10-23T00:31:18.665Z,28.35
2022-10-23T00:33:45.631Z,23.92
2022-10-23T00:36:15.495Z,19.20
2022-10-23T00:38:42.463Z,20.80
2022-10-23T00:41:14.764Z,18.98
2022-10-23T00:43:58.524Z,23.20
2022-10-23T00:46:25.718Z,21.42
2022-10-23T00:48:52.751Z,15.52
2022-10-23T00:51:19.853Z,19.67
2022-10-23T00:54:01.069Z,18.77
2022-10-23T00:56:40.495Z,16.98
2022-10-23T00:59:07.863Z,22.80
2022-10-23T01:01:34.851Z,18.10
2022-10-23T01:04:03.747Z,16.73
2022-10-23T01:06:52.840Z,21.77
2022-10-23T01:09:34.933Z,22.60
2022-10-23T01:12:24.526Z,21.10
2022-10-23T01:15:00.521Z,19.20
2022-10-23T01:17:44.852Z,17.63
2022-10-23T01:20:29.850Z,25.05
2022-10-23T01:23:28.886Z,18.52
2022-10-23T01:26:13.721Z,22.67
2022-10-23T01:28:55.854Z,24.73
2022-10-23T01:31:30.844Z,19.67
2022-10-23T01:34:09.812Z,21.25
2022-10-23T01:36:41.390Z,20.73
2022-10-23T01:39:14.993Z,24.65
2022-10-23T01:41:48.654Z,20.50
2022-10-23T01:44:57.392Z,24.85
2022-10-23T01:47:28.425Z,20.52
2022-10-23T01:49:57.928Z,23.13
2022-10-23T01:52:24.990Z,16.10
2022-10-23T01:54:55.102Z,15.98
2022-10-23T01:57:23.628Z,14.30
2022-10-23T01:59:56.948Z,16.85
2022-10-23T02:02:27.128Z,16.83
2022-10-23T02:05:12.118Z,17.85
2022-10-23T02:07:39.225Z,20.30
2022-10-23T02:10:08.028Z,19.52
2022-10-23T02:12:40.811Z,20.15
2022-10-23T02:15:07.543Z,18.70
2022-10-23T02:18:02.908Z,19.40
2022-10-23T02:20:42.057Z,22.25
2022-10-23T02:23:32.706Z,23.77
2022-10-23T02:26:28.716Z,17.02
2022-10-23T02:29:18.295Z,20.10
2022-10-23T02:31:45.636Z,17.42
2022-10-23T02:34:12.417Z,16.80
2022-10-23T02:36:39.427Z,22.30
2022-10-23T02:39:06.258Z,17.52
2022-10-23T02:41:58.216Z,18.17
2022-10-23T02:44:55.944Z,15.57
2022-10-23T02:47:37.780Z,18.88
2022-10-23T02:50:18.554Z,24.67
2022-10-23T02:53:07.421Z,16.30
2022-10-23T02:55:50.743Z,20.33
2022-10-23T02:58:42.988Z,21.75
2022-10-23T03:01:15.049Z,20.60
2022-10-23T03:03:53.034Z,17.63
2022-10-23T03:06:20.707Z,17.55
2022-10-23T03:08:58.995Z,17.67
2022-10-23T03:11:26.072Z,19.08
2022-10-23T03:13:53.078Z,18.77
2022-10-23T03:16:19.943Z,16.05
2022-10-23T03:18:46.739Z,17.30
2022-10-23T03:21:13.508Z,21.55
2022-10-23T03:23:40.311Z,13.57
2022-10-23T03:26:07.160Z,15.82
2022-10-23T03:28:35.454Z,20.08
2022-10-23T03:31:03.169Z,19.00
2022-10-23T03:33:31.357Z,16.83
2022-10-23T03:35:58.476Z,23.70
2022-10-23T03:38:25.424Z,15.20
2022-10-23T03:40:52.237Z,16.77
2022-10-23T03:43:19.942Z,16.58
2022-10-23T03:45:46.708Z,20.67
2022-10-23T03:48:13.656Z,18.00
2022-10-23T03:50:40.553Z,20.27
2022-10-23T03:53:07.388Z,19.58
2022-10-23T03:55:34.154Z,15.35
2022-10-23T03:58:00.930Z,20.27
2022-10-23T04:00:27.802Z,26.98
2022-10-23T04:02:54.579Z,18.85
2022-10-23T04:05:21.410Z,19.38
2022-10-23T04:07:48.268Z,15.82
2022-10-23T04:10:15.048Z,14.95
2022-10-23T04:12:42.287Z,19.77
2022-10-23T04:15:09.543Z,21.30
2022-10-23T04:17:36.419Z,16.17
2022-10-23T04:20:03.616Z,16.58
2022-10-23T04:22:30.381Z,18.58
2022-10-23T04:24:57.211Z,17.85
2022-10-23T04:27:23.996Z,24.80
2022-10-23T04:29:52.359Z,23.60
2022-10-23T04:32:21.248Z,21.52
2022-10-23T04:34:48.002Z,18.88
2022-10-23T04:37:14.791Z,17.20
2022-10-23T04:39:41.584Z,17.45
2022-10-23T04:42:08.383Z,21.88
2022-10-23T04:44:35.196Z,19.05
2022-10-23T04:47:01.975Z,24.20
2022-10-23T04:49:28.780Z,21.70
2022-10-23T04:51:55.549Z,23.45
2022-10-23T04:54:22.311Z,19.50
2022-10-23T04:56:49.073Z,23.50
2022-10-23T04:59:15.838Z,25.02
2022-10-23T05:01:42.708Z,26.33
2022-10-23T05:04:09.830Z,25.00
2022-10-23T05:06:36.569Z,24.60
2022-10-23T05:09:04.023Z,25.60
2022-10-23T05:11:30.765Z,19.17
2022-10-23T05:13:57.710Z,20.77
2022-10-23T05:17:13.712Z,23.23
2022-10-23T05:19:45.847Z,20.20
2022-10-23T05:22:13.912Z,22.95
2022-10-23T05:24:40.708Z,27.77
2022-10-23T05:27:07.523Z,27.17
2022-10-23T05:29:34.298Z,23.65
2022-10-23T05:32:04.989Z,22.90
2022-10-23T05:34:34.545Z,32.97
2022-10-23T05:37:02.820Z,24.60
2022-10-23T05:39:29.844Z,25.85
2022-10-23T05:41:56.587Z,20.23
2022-10-23T05:44:23.352Z,26.58
2022-10-23T05:46:50.187Z,28.08
2022-10-23T05:49:17.136Z,23.05
2022-10-23T05:51:43.906Z,21.80
2022-10-23T05:54:10.774Z,20.52
2022-10-23T05:56:41.513Z,32.80
2022-10-23T05:59:08.808Z,24.27
2022-10-23T06:01:36.205Z,25.88
2022-10-23T06:04:04.264Z,32.08
2022-10-23T06:06:31.528Z,19.50
2022-10-23T06:08:58.439Z,28.13
2022-10-23T06:11:25.288Z,23.45
2022-10-23T06:13:52.183Z,25.98
2022-10-23T06:16:21.863Z,25.10
2022-10-23T06:18:48.870Z,23.90
2022-10-23T06:21:15.985Z,24.15
2022-10-23T06:23:44.752Z,22.23
2022-10-23T06:26:13.709Z,26.23
2022-10-23T06:28:41.053Z,28.55
2022-10-23T06:31:09.918Z,28.02
2022-10-23T06:33:37.125Z,23.58
2022-10-23T06:36:05.558Z,24.73
2022-10-23T06:38:37.487Z,18.60
2022-10-23T06:41:05.236Z,22.05
2022-10-23T06:43:31.999Z,25.15
2022-10-23T06:46:04.331Z,23.45
2022-10-23T06:48:32.152Z,18.98
2022-10-23T06:50:59.796Z,22.58
2022-10-23T06:53:26.645Z,24.52
2022-10-23T06:55:58.499Z,20.77
2022-10-23T06:58:25.883Z,15.10
2022-10-23T07:00:53.227Z,24.00
2022-10-23T07:03:20.099Z,22.85
2022-10-23T07:05:49.656Z,24.25
2022-10-23T07:08:16.864Z,21.58
2022-10-23T07:10:48.100Z,17.70
2022-10-23T07:13:14.953Z,22.05
2022-10-23T07:15:41.812Z,18.55
2022-10-23T07:18:14.683Z,31.20
2022-10-23T07:20:42.119Z,33.40
2022-10-23T07:23:11.459Z,20.95
2022-10-23T07:25:38.266Z,21.58
2022-10-23T07:28:05.486Z,23.77
2022-10-23T07:30:32.676Z,16.95
2022-10-23T07:32:59.748Z,20.73
2022-10-23T07:35:26.616Z,18.38
2022-10-23T07:37:53.359Z,26.27
2022-10-23T07:40:20.319Z,21.77
2022-10-23T07:42:47.222Z,17.15
2022-10-23T07:45:14.143Z,20.58
2022-10-23T07:47:41.270Z,18.08
2022-10-23T07:50:09.106Z,23.38
2022-10-23T07:52:36.440Z,19.02
2022-10-23T07:55:03.607Z,19.63
2022-10-23T07:57:30.569Z,19.17
2022-10-23T07:59:57.417Z,19.45
2022-10-23T08:02:24.200Z,24.38
2022-10-23T08:04:51.349Z,29.20
2022-10-23T08:07:18.829Z,24.63
2022-10-23T08:09:45.686Z,17.50
2022-10-23T08:12:12.655Z,22.83
2022-10-23T08:14:39.960Z,17.08
2022-10-23T08:17:09.906Z,16.15
2022-10-23T08:19:37.208Z,19.60
2022-10-23T08:22:04.089Z,20.42
2022-10-23T08:24:30.997Z,17.38
2022-10-23T08:26:58.751Z,22.40
2022-10-23T08:29:26.078Z,24.60
2022-10-23T08:31:57.436Z,19.85
2022-10-23T08:34:24.427Z,14.65
2022-10-23T08:36:51.349Z,24.02
2022-10-23T08:39:18.189Z,21.30
2022-10-23T08:41:51.156Z,20.45
2022-10-23T08:44:45.963Z,19.23
2022-10-23T08:47:24.191Z,17.67
2022-10-23T08:49:56.943Z,18.80
2022-10-23T08:52:36.479Z,20.55
2022-10-23T08:55:21.761Z,32.47
2022-10-23T08:58:15.184Z,15.98
2022-10-23T09:00:43.336Z,16.70
2022-10-23T09:03:12.668Z,16.77
2022-10-23T09:05:50.467Z,14.85
2022-10-23T09:08:56.931Z,22.20
2022-10-23T09:11:32.917Z,20.20
2022-10-23T09:14:41.491Z,19.02
2022-10-23T09:17:22.979Z,14.55
2022-10-23T09:19:59.143Z,14.27
2022-10-23T09:22:27.222Z,10.95
2022-10-23T09:24:54.083Z,15.50
2022-10-23T09:27:21.082Z,14.02
2022-10-23T09:29:53.694Z,15.75
2022-10-23T09:32:32.564Z,14.25
2022-10-23T09:34:59.382Z,14.43
2022-10-23T09:37:29.491Z,22.25
2022-10-23T09:40:35.973Z,19.48
2022-10-23T09:43:14.603Z,13.07
2022-10-23T09:45:42.587Z,17.02
2022-10-23T09:48:16.976Z,12.30
2022-10-23T09:50:55.749Z,14.05
2022-10-23T09:53:32.509Z,16.75
2022-10-23T09:56:07.897Z,15.35
2022-10-23T09:58:43.203Z,13.93
2022-10-23T10:01:27.129Z,12.38
2022-10-23T10:03:54.492Z,14.70
2022-10-23T10:06:27.146Z,15.32
2022-10-23T10:08:57.754Z,10.85
2022-10-23T10:11:44.252Z,11.65
2022-10-23T10:14:10.968Z,11.57
2022-10-23T10:16:56.525Z,11.60
2022-10-23T10:19:48.648Z,15.30
2022-10-23T10:22:34.277Z,11.05
2022-10-23T10:25:04.239Z,15.77
2022-10-23T10:28:12.839Z,18.08
2022-10-23T10:30:45.460Z,11.40
2022-10-23T10:33:22.847Z,12.98
2022-10-23T10:35:57.689Z,9.75
2022-10-23T10:38:30.385Z,15.77
2022-10-23T10:41:20.742Z,8.73
2022-10-23T10:43:57.867Z,11.52
2022-10-23T10:46:49.066Z,9.60
2022-10-23T10:49:41.879Z,16.35
2022-10-23T10:52:27.116Z,15.18
2022-10-23T10:55:21.811Z,8.52
2022-10-23T10:58:15.949Z,8.02
2022-10-23T11:00:45.326Z,11.70
2022-10-23T11:03:37.627Z,6.13
2022-10-23T11:06:13.150Z,15.40
2022-10-23T11:08:56.211Z,9.13
2022-10-23T11:11:34.951Z,6.55
2022-10-23T11:14:02.548Z,10.48
2022-10-23T11:16:37.460Z,7.57
2022-10-23T11:19:28.838Z,13.52
2022-10-23T11:22:33.207Z,14.38
2022-10-23T11:25:02.912Z,4.25
2022-10-23T11:27:32.795Z,7.30
2022-10-23T11:30:21.159Z,11.77
2022-10-23T11:33:25.961Z,15.73
2022-10-23T11:36:06.048Z,11.68
2022-10-23T11:38:38.180Z,11.15
2022-10-23T11:41:18.973Z,8.03
2022-10-23T11:43:55.464Z,10.20
2022-10-23T11:46:22.184Z,10.23
2022-10-23T11:48:49.838Z,14.77
2022-10-23T11:51:40.190Z,6.53
2022-10-23T11:54:16.827Z,9.05
2022-10-23T11:57:10.593Z,9.65
2022-10-23T11:59:49.592Z,15.38
2022-10-23T12:02:32.139Z,11.95
2022-10-23T12:05:04.326Z,10.57
2022-10-23T12:07:40.204Z,7.63
2022-10-23T12:10:19.465Z,5.72
2022-10-23T12:12:59.590Z,9.95
2022-10-23T12:15:27.061Z,5.70
2022-10-23T12:18:07.442Z,8.10
2022-10-23T12:20:47.280Z,7.45
2022-10-23T12:23:48.069Z,9.23
2022-10-23T12:26:24.409Z,6.70
2022-10-23T12:29:24.849Z,11.77
2022-10-23T12:32:17.072Z,11.07
2022-10-23T12:35:33.586Z,6.85
2022-10-23T12:38:05.195Z,10.32
2022-10-23T12:40:32.202Z,10.40
2022-10-23T12:43:00.430Z,7.78
2022-10-23T12:45:35.676Z,6.93
2022-10-23T12:48:02.546Z,9.52
2022-10-23T12:50:30.986Z,11.82
2022-10-23T12:53:03.489Z,5.75
2022-10-23T12:58:32.699Z,10.98
2022-10-23T13:01:02.670Z,11.70
2022-10-23T13:03:31.700Z,5.22
2022-10-23T13:05:59.890Z,6.07
2022-10-23T13:08:48.206Z,9.93
2022-10-23T13:11:18.087Z,8.00
2022-10-23T13:13:45.144Z,7.78
2022-10-23T13:16:22.945Z,9.65
2022-10-23T13:18:50.004Z,3.78
2022-10-23T13:21:27.183Z,5.57
2022-10-23T13:23:54.373Z,5.72
2022-10-23T13:26:42.772Z,8.57
2022-10-23T13:29:31.405Z,6.57
2022-10-23T13:32:09.487Z,8.77
2022-10-23T13:34:36.297Z,3.40
2022-10-23T13:37:23.385Z,8.07
2022-10-23T13:40:01.918Z,7.05
2022-10-23T13:42:29.008Z,9.00
2022-10-23T13:44:55.958Z,7.57
2022-10-23T13:47:22.957Z,8.02
2022-10-23T13:49:49.867Z,3.90
2022-10-23T13:52:22.093Z,12.18
2022-10-23T13:54:49.943Z,9.77
2022-10-23T13:57:16.889Z,8.27
2022-10-23T13:59:43.767Z,5.93
2022-10-23T14:02:21.947Z,9.98
2022-10-23T14:04:50.257Z,6.32
2022-10-23T14:07:17.121Z,7.35
2022-10-23T14:09:44.549Z,5.28
2022-10-23T14:12:12.379Z,5.43
2022-10-23T14:14:39.387Z,10.70
2022-10-23T14:17:06.190Z,7.25
2022-10-23T14:22:03.948Z,6.63
2022-10-23T14:24:30.799Z,9.35
2022-10-23T14:26:57.707Z,13.60
2022-10-23T14:29:24.710Z,8.23
2022-10-23T14:31:51.892Z,7.80
2022-10-23T14:34:18.751Z,3.78
2022-10-23T14:36:56.492Z,4.97
2022-10-23T14:39:23.735Z,10.68
2022-10-23T14:41:50.676Z,7.68
2022-10-23T14:44:17.592Z,7.03
2022-10-23T14:46:44.483Z,5.13
2022-10-23T14:49:11.369Z,5.15
2022-10-23T14:51:38.361Z,8.30
2022-10-23T14:54:07.113Z,8.00
2022-10-23T14:56:37.540Z,8.60
2022-10-23T14:59:04.810Z,11.10
2022-10-23T15:01:41.243Z,7.63
2022-10-23T15:04:11.942Z,10.18
2022-10-23T15:06:38.892Z,5.47
2022-10-23T15:09:05.892Z,11.10
2022-10-23T15:11:32.938Z,5.82
2022-10-23T15:14:00.599Z,12.18
2022-10-23T15:16:27.952Z,8.18
2022-10-23T15:18:54.943Z,7.55
2022-10-23T15:21:21.886Z,10.77
2022-10-23T15:23:49.144Z,12.02
2022-10-23T15:26:21.582Z,6.25
2022-10-23T15:28:56.729Z,8.10
2022-10-23T15:31:30.426Z,12.23
2022-10-23T15:33:58.194Z,4.47
2022-10-23T15:36:25.448Z,8.57
2022-10-23T15:38:52.623Z,3.65
2022-10-23T15:41:32.538Z,9.05
2022-10-23T15:44:00.547Z,6.80
2022-10-23T15:46:27.561Z,6.53
2022-10-23T15:48:54.672Z,3.67
2022-10-23T15:51:22.164Z,11.63
2022-10-23T15:53:49.230Z,13.73
2022-10-23T15:56:16.063Z,7.97
2022-10-23T15:58:43.141Z,8.90
2022-10-23T16:01:10.130Z,7.57
2022-10-23T16:03:38.354Z,6.90
2022-10-23T16:06:08.347Z,4.15
2022-10-23T16:08:35.954Z,11.38
2022-10-23T16:11:03.560Z,7.30
2022-10-23T16:13:30.499Z,7.55
2022-10-23T16:15:57.976Z,6.82
2022-10-23T16:18:24.777Z,5.88
2022-10-23T16:20:54.938Z,5.88
2022-10-23T16:23:22.124Z,7.60
2022-10-23T16:25:49.129Z,5.38
2022-10-23T16:28:15.946Z,9.95
2022-10-23T16:30:43.929Z,24.83
2022-10-23T16:33:10.799Z,6.50
2022-10-23T16:35:37.977Z,8.82
2022-10-23T16:38:05.096Z,8.77
2022-10-23T16:40:32.037Z,9.75
2022-10-23T16:42:59.144Z,15.68
2022-10-23T16:45:26.005Z,5.35
2022-10-23T16:47:52.833Z,9.20
2022-10-23T16:50:19.757Z,10.07
2022-10-23T16:52:48.283Z,4.72
2022-10-23T16:55:16.805Z,9.20
2022-10-23T16:57:43.650Z,7.35
2022-10-23T17:00:11.037Z,5.30
2022-10-23T17:02:38.331Z,7.88
2022-10-23T17:05:05.687Z,6.05
2022-10-23T17:07:32.680Z,4.90
2022-10-23T17:09:59.537Z,11.10
2022-10-23T17:12:26.399Z,11.18
2022-10-23T17:14:53.220Z,9.32
2022-10-23T17:17:20.155Z,8.45
2022-10-23T17:19:47.179Z,6.28
2022-10-23T17:22:14.857Z,7.78
2022-10-23T17:24:44.198Z,7.30
2022-10-23T17:27:13.271Z,8.25
2022-10-23T17:29:40.163Z,9.57
2022-10-23T17:32:07.232Z,6.03
2022-10-23T17:34:34.143Z,11.05
2022-10-23T17:37:01.754Z,8.68
2022-10-23T17:39:29.915Z,12.82
2022-10-23T17:41:57.261Z,6.53
2022-10-23T17:44:24.239Z,10.18
2022-10-23T17:46:54.836Z,7.50
2022-10-23T17:49:22.155Z,6.80
2022-10-23T17:51:55.404Z,9.60
2022-10-23T17:54:23.514Z,6.20
2022-10-23T17:56:50.426Z,15.07
2022-10-23T17:59:19.585Z,6.65
2022-10-23T18:01:48.131Z,6.35
2022-10-23T18:04:16.921Z,8.57
2022-10-23T18:06:46.559Z,5.53
2022-10-23T18:09:13.665Z,5.32
2022-10-23T18:11:46.812Z,8.02
2022-10-23T18:14:19.286Z,9.73
2022-10-23T18:16:46.341Z,8.23
2022-10-23T18:19:18.200Z,9.20
2022-10-23T18:21:46.477Z,8.57
2022-10-23T18:24:13.434Z,10.35
2022-10-23T18:26:41.757Z,13.48
2022-10-23T18:29:10.740Z,10.30
2022-10-23T18:31:38.367Z,11.25
2022-10-23T18:34:18.011Z,5.65
2022-10-23T18:36:44.977Z,3.67
2022-10-23T18:39:15.917Z,9.55
2022-10-23T18:41:45.257Z,6.50
2022-10-23T18:44:17.344Z,5.13
2022-10-23T18:46:45.260Z,6.87
2022-10-23T18:49:12.483Z,5.40
2022-10-23T18:51:39.514Z,10.30
2022-10-23T18:54:10.779Z,11.38
2022-10-23T18:56:39.144Z,11.38
2022-10-23T18:59:10.510Z,8.75
2022-10-23T19:01:37.568Z,8.15
2022-10-23T19:04:06.063Z,5.38
2022-10-23T19:06:34.956Z,8.88
2022-10-23T19:09:02.037Z,11.15
2022-10-23T19:11:29.075Z,6.80
2022-10-23T19:13:56.098Z,8.52
2022-10-23T19:16:30.791Z,9.57
2022-10-23T19:19:05.444Z,7.07
2022-10-23T19:21:36.834Z,7.43
2022-10-23T19:24:11.145Z,11.13
2022-10-23T19:26:40.278Z,15.05
2022-10-23T19:29:09.843Z,11.20
2022-10-23T19:31:36.797Z,11.35
2022-10-23T19:34:04.080Z,5.32
2022-10-23T19:36:32.039Z,3.25
2022-10-23T19:38:58.875Z,8.07
2022-10-23T19:41:25.797Z,7.90
2022-10-23T19:43:52.772Z,10.18
2022-10-23T19:46:19.714Z,9.48
2022-10-23T19:48:46.834Z,6.40
2022-10-23T19:51:13.954Z,9.20
2022-10-23T19:53:42.578Z,6.35
2022-10-23T19:56:11.305Z,10.30
2022-10-23T19:58:38.809Z,9.48
2022-10-23T20:01:17.986Z,6.65
2022-10-23T20:03:45.876Z,6.60
2022-10-23T20:06:14.878Z,9.07
2022-10-23T20:08:42.166Z,3.25
2022-10-23T20:11:09.769Z,9.90
2022-10-23T20:13:36.583Z,6.32
2022-10-23T20:16:03.484Z,7.65
2022-10-23T20:18:30.338Z,5.78
2022-10-23T20:20:57.205Z,6.85
2022-10-23T20:23:24.104Z,6.15
2022-10-23T20:25:50.931Z,8.90
2022-10-23T20:28:17.776Z,7.30
2022-10-23T20:30:46.011Z,11.55
2022-10-23T20:33:12.932Z,4.65
2022-10-23T20:35:43.636Z,4.82
2022-10-23T20:38:10.572Z,6.45
2022-10-23T20:40:37.973Z,8.20
2022-10-23T20:43:05.000Z,4.40
2022-10-23T20:45:31.957Z,9.40
2022-10-23T20:47:59.116Z,4.78
2022-10-23T20:50:25.998Z,8.55
2022-10-23T20:52:52.817Z,6.95
2022-10-23T20:55:20.140Z,9.85
2022-10-23T20:57:47.262Z,15.15
2022-10-23T21:00:15.270Z,7.68
2022-10-23T21:02:43.842Z,9.00
2022-10-23T21:05:12.472Z,7.80
2022-10-23T21:07:39.244Z,8.38
2022-10-23T21:10:06.593Z,9.90
2022-10-23T21:12:33.393Z,5.35
2022-10-23T21:15:00.186Z,6.88
2022-10-23T21:17:27.196Z,14.95
2022-10-23T21:19:54.048Z,7.03
2022-10-23T21:22:20.816Z,7.28
2022-10-23T21:24:47.780Z,8.65
2022-10-23T21:27:15.225Z,10.30
2022-10-23T21:29:42.123Z,6.05
2022-10-23T21:32:09.020Z,11.93
2022-10-23T21:34:35.912Z,11.40
2022-10-23T21:37:13.343Z,4.15
2022-10-23T21:39:44.424Z,8.10
2022-10-23T21:42:12.828Z,8.35
2022-10-23T21:44:39.692Z,7.28
2022-10-23T21:47:07.004Z,5.97
2022-10-23T21:49:33.810Z,13.35
2022-10-23T21:52:00.673Z,10.88
2022-10-23T21:54:27.538Z,9.48
2022-10-23T21:56:54.792Z,14.35
2022-10-23T21:59:25.788Z,5.60
2022-10-23T22:01:54.821Z,11.65
2022-10-23T22:04:22.616Z,10.00
2022-10-23T22:06:50.104Z,7.57
2022-10-23T22:09:19.712Z,6.47
2022-10-23T22:11:50.921Z,5.78
2022-10-23T22:14:18.458Z,10.63
2022-10-23T22:16:45.674Z,11.13
2022-10-23T22:19:14.438Z,4.55
2022-10-23T22:21:41.909Z,3.83
2022-10-23T22:24:09.777Z,6.10
2022-10-23T22:26:42.887Z,7.43
2022-10-23T22:31:39.569Z,7.10
2022-10-23T22:34:18.943Z,8.70
2022-10-23T22:36:56.208Z,3.78
2022-10-23T22:39:23.744Z,8.30
2022-10-23T22:41:50.835Z,6.45
2022-10-23T22:44:18.017Z,8.00
2022-10-23T22:46:44.913Z,5.70
2022-10-23T22:49:11.717Z,5.93
2022-10-23T22:51:39.673Z,9.93
2022-10-23T22:54:07.175Z,5.70
2022-10-23T22:56:34.275Z,6.65
2022-10-23T22:59:01.118Z,5.25
2022-10-23T23:01:35.363Z,7.13
2022-10-23T23:04:13.745Z,10.80
2022-10-23T23:06:49.100Z,8.70
2022-10-23T23:09:18.061Z,7.93
2022-10-23T23:11:51.642Z,7.78
2022-10-23T23:14:23.094Z,4.40
2022-10-23T23:16:54.492Z,7.18
2022-10-23T23:19:23.224Z,9.85
2022-10-23T23:21:50.563Z,9.40
2022-10-23T23:24:17.518Z,8.88
2022-10-23T23:26:44.271Z,3.78
2022-10-23T23:29:11.371Z,4.65
2022-10-23T23:31:38.176Z,8.90
2022-10-23T23:34:05.000Z,8.43
2022-10-23T23:36:32.602Z,7.75
2022-10-23T23:38:59.469Z,13.38
2022-10-23T23:41:27.792Z,5.32
2022-10-23T23:43:56.551Z,6.72
2022-10-23T23:46:24.203Z,6.03
2022-10-23T23:48:50.951Z,10.43
2022-10-23T23:51:20.624Z,5.85
2022-10-23T23:53:48.557Z,7.05
2022-10-23T23:56:15.675Z,9.18
2022-10-23T23:58:42.525Z,9.02
